Terminal Aerodrome Forecast
Issued by NWS

Home | Current Version | Previous Version | Text Only | Print | Product List | Glossary On
Versions: 1 2 3 4 5 6 7 8 9 10 11 12 13
202
FTUS42 KMLB 220529
TAFISM
TAF
KISM 220529Z 2206/2306 09008KT P6SM VCSH FEW008 BKN020 OVC035
      TEMPO 2209/2212 BKN010
     FM221400 10012KT P6SM VCSH SCT025 BKN035
     FM221900 11016G22KT P6SM VCTS SCT025CB BKN040
     FM230000 11009KT P6SM VCSH BKN025=

USA.gov is the U.S. government's official web portal to all federal, state and local government web resources and services.